<?xml version='1.0' encoding='UTF-8'?><gpx version="1.1" creator="JPX - https://github.com/jenetics/jpx" xmlns="http://www.topografix.com/GPX/1/1"><trk><trkseg><trkpt lat="45.6177089" lon="9.8803329"><ele>189.0</ele><time>2026-04-04T12:09:37.994Z</time></trkpt><trkpt lat="45.6177716" lon="9.8803457"><ele>189.0</ele><time>2026-04-04T12:09:38.994Z</time></trkpt><trkpt lat="45.6178434" lon="9.8803526"><ele>189.0</ele><time>2026-04-04T12:09:39.994Z</time></trkpt><trkpt lat="45.6179275" lon="9.8803528"><ele>189.0</ele><time>2026-04-04T12:09:40.993Z</time></trkpt><trkpt lat="45.6180298" lon="9.8803485"><ele>189.0</ele><time>2026-04-04T12:09:41.993Z</time></trkpt><trkpt lat="45.6181321" lon="9.8803487"><ele>189.0</ele><time>2026-04-04T12:09:42.994Z</time></trkpt><trkpt lat="45.6182381" lon="9.8803436"><ele>189.25</ele><time>2026-04-04T12:09:43.993Z</time></trkpt><trkpt lat="45.6183486" lon="9.8803372"><ele>189.5</ele><time>2026-04-04T12:09:44.994Z</time></trkpt><trkpt lat="45.6184744" lon="9.8803315"><ele>189.75</ele><time>2026-04-04T12:09:45.994Z</time></trkpt><trkpt lat="45.6186024" lon="9.8803315"><ele>190.0</ele><time>2026-04-04T12:09:46.994Z</time></trkpt><trkpt lat="45.6187403" lon="9.8803341"><ele>190.25</ele><time>2026-04-04T12:09:47.994Z</time></trkpt><trkpt lat="45.6188824" lon="9.880333"><ele>190.5</ele><time>2026-04-04T12:09:48.994Z</time></trkpt><trkpt lat="45.6190254" lon="9.8803279"><ele>190.75</ele><time>2026-04-04T12:09:49.993Z</time></trkpt><trkpt lat="45.6191648" lon="9.8803225"><ele>191.0</ele><time>2026-04-04T12:09:50.994Z</time></trkpt><trkpt lat="45.6193017" lon="9.8803149"><ele>191.0</ele><time>2026-04-04T12:09:51.994Z</time></trkpt><trkpt lat="45.6194345" lon="9.8803087"><ele>191.0</ele><time>2026-04-04T12:09:52.994Z</time></trkpt><trkpt lat="45.6195652" lon="9.8803021"><ele>191.0</ele><time>2026-04-04T12:09:53.994Z</time></trkpt><trkpt lat="45.6196938" lon="9.8802891"><ele>191.0</ele><time>2026-04-04T12:09:54.993Z</time></trkpt><trkpt lat="45.6198234" lon="9.8802787"><ele>191.5</ele><time>2026-04-04T12:09:55.994Z</time></trkpt><trkpt lat="45.6199505" lon="9.8802653"><ele>192.0</ele><time>2026-04-04T12:09:56.993Z</time></trkpt><trkpt lat="45.6200618" lon="9.8802493"><ele>192.5</ele><time>2026-04-04T12:09:57.994Z</time></trkpt><trkpt lat="45.620173" lon="9.8802322"><ele>193.0</ele><time>2026-04-04T12:09:58.994Z</time></trkpt><trkpt lat="45.6202884" lon="9.8802238"><ele>194.25</ele><time>2026-04-04T12:09:59.993Z</time></trkpt><trkpt lat="45.6204122" lon="9.8802137"><ele>195.5</ele><time>2026-04-04T12:10:00.993Z</time></trkpt><trkpt lat="45.6205422" lon="9.8802005"><ele>196.75</ele><time>2026-04-04T12:10:01.994Z</time></trkpt><trkpt lat="45.6206753" lon="9.8802101"><ele>198.0</ele><time>2026-04-04T12:10:02.993Z</time></trkpt><trkpt lat="45.6208178" lon="9.8802426"><ele>198.0</ele><time>2026-04-04T12:10:03.994Z</time></trkpt><trkpt lat="45.6209629" lon="9.8802485"><ele>198.0</ele><time>2026-04-04T12:10:04.993Z</time></trkpt><trkpt lat="45.6211154" lon="9.8802536"><ele>198.0</ele><time>2026-04-04T12:10:05.994Z</time></trkpt><trkpt lat="45.6212679" lon="9.8802522"><ele>198.33333333333331</ele><time>2026-04-04T12:10:06.993Z</time></trkpt><trkpt lat="45.6214279" lon="9.8802475"><ele>198.66666666666666</ele><time>2026-04-04T12:10:07.994Z</time></trkpt><trkpt lat="45.6215899" lon="9.8802443"><ele>199.0</ele><time>2026-04-04T12:10:08.994Z</time></trkpt><trkpt lat="45.6217527" lon="9.880241"><ele>199.0</ele><time>2026-04-04T12:10:09.994Z</time></trkpt><trkpt lat="45.6219141" lon="9.8802379"><ele>199.0</ele><time>2026-04-04T12:10:10.993Z</time></trkpt><trkpt lat="45.6220781" lon="9.8802313"><ele>199.0</ele><time>2026-04-04T12:10:11.994Z</time></trkpt><trkpt lat="45.622242" lon="9.8802228"><ele>199.0</ele><time>2026-04-04T12:10:12.993Z</time></trkpt><trkpt lat="45.6224051" lon="9.8802201"><ele>199.0</ele><time>2026-04-04T12:10:13.993Z</time></trkpt><trkpt lat="45.622571" lon="9.8802129"><ele>199.0</ele><time>2026-04-04T12:10:14.993Z</time></trkpt><trkpt lat="45.6227341" lon="9.880208"><ele>200.0</ele><time>2026-04-04T12:10:15.993Z</time></trkpt><trkpt lat="45.6228967" lon="9.8802038"><ele>201.0</ele><time>2026-04-04T12:10:16.994Z</time></trkpt><trkpt lat="45.6230613" lon="9.8802"><ele>202.0</ele><time>2026-04-04T12:10:17.993Z</time></trkpt><trkpt lat="45.6232197" lon="9.8801924"><ele>202.0</ele><time>2026-04-04T12:10:18.994Z</time></trkpt><trkpt lat="45.6233771" lon="9.8801868"><ele>202.0</ele><time>2026-04-04T12:10:19.994Z</time></trkpt><trkpt lat="45.6235381" lon="9.8801804"><ele>202.0</ele><time>2026-04-04T12:10:20.993Z</time></trkpt><trkpt lat="45.6236962" lon="9.8801719"><ele>202.0</ele><time>2026-04-04T12:10:21.994Z</time></trkpt><trkpt lat="45.6238572" lon="9.880164"><ele>202.0</ele><time>2026-04-04T12:10:22.993Z</time></trkpt><trkpt lat="45.6240195" lon="9.8801551"><ele>202.0</ele><time>2026-04-04T12:10:23.993Z</time></trkpt><trkpt lat="45.6241859" lon="9.8801472"><ele>202.0</ele><time>2026-04-04T12:10:24.993Z</time></trkpt><trkpt lat="45.624355" lon="9.8801399"><ele>202.0</ele><time>2026-04-04T12:10:25.993Z</time></trkpt><trkpt lat="45.6245241" lon="9.8801325"><ele>202.0</ele><time>2026-04-04T12:10:26.994Z</time></trkpt><trkpt lat="45.6246985" lon="9.8801276"><ele>203.0</ele><time>2026-04-04T12:10:27.993Z</time></trkpt><trkpt lat="45.6248688" lon="9.8801258"><ele>204.0</ele><time>2026-04-04T12:10:28.993Z</time></trkpt><trkpt lat="45.6250391" lon="9.8801143"><ele>205.0</ele><time>2026-04-04T12:10:29.993Z</time></trkpt><trkpt lat="45.6252056" lon="9.8801038"><ele>205.0</ele><time>2026-04-04T12:10:30.993Z</time></trkpt><trkpt lat="45.6253742" lon="9.8800913"><ele>205.0</ele><time>2026-04-04T12:10:31.993Z</time></trkpt><trkpt lat="45.6255411" lon="9.8800797"><ele>205.0</ele><time>2026-04-04T12:10:32.994Z</time></trkpt><trkpt lat="45.6257082" lon="9.8800723"><ele>205.0</ele><time>2026-04-04T12:10:33.994Z</time></trkpt><trkpt lat="45.6258753" lon="9.8800649"><ele>205.0</ele><time>2026-04-04T12:10:34.993Z</time></trkpt><trkpt lat="45.6260392" lon="9.8800575"><ele>205.0</ele><time>2026-04-04T12:10:35.994Z</time></trkpt><trkpt lat="45.626203" lon="9.8800514"><ele>205.0</ele><time>2026-04-04T12:10:36.994Z</time></trkpt><trkpt lat="45.6263582" lon="9.8800439"><ele>205.0</ele><time>2026-04-04T12:10:37.993Z</time></trkpt><trkpt lat="45.6265071" lon="9.8800316"><ele>205.0</ele><time>2026-04-04T12:10:38.993Z</time></trkpt><trkpt lat="45.6266505" lon="9.8800276"><ele>205.0</ele><time>2026-04-04T12:10:39.994Z</time></trkpt><trkpt lat="45.6267871" lon="9.8800275"><ele>205.0</ele><time>2026-04-04T12:10:40.994Z</time></trkpt><trkpt lat="45.6269134" lon="9.8800254"><ele>205.0</ele><time>2026-04-04T12:10:41.993Z</time></trkpt><trkpt lat="45.6270432" lon="9.8800239"><ele>205.0</ele><time>2026-04-04T12:10:42.994Z</time></trkpt><trkpt lat="45.6271677" lon="9.8800229"><ele>205.0</ele><time>2026-04-04T12:10:43.993Z</time></trkpt><trkpt lat="45.627287" lon="9.8800191"><ele>205.25</ele><time>2026-04-04T12:10:44.993Z</time></trkpt><trkpt lat="45.6274004" lon="9.8800189"><ele>205.5</ele><time>2026-04-04T12:10:45.994Z</time></trkpt><trkpt lat="45.6275135" lon="9.8800256"><ele>205.75</ele><time>2026-04-04T12:10:46.994Z</time></trkpt><trkpt lat="45.6276331" lon="9.8800254"><ele>206.0</ele><time>2026-04-04T12:10:47.993Z</time></trkpt><trkpt lat="45.6277696" lon="9.880024"><ele>206.0</ele><time>2026-04-04T12:10:48.994Z</time></trkpt><trkpt lat="45.6279116" lon="9.880036"><ele>206.0</ele><time>2026-04-04T12:10:49.994Z</time></trkpt><trkpt lat="45.6280639" lon="9.8800471"><ele>206.0</ele><time>2026-04-04T12:10:50.993Z</time></trkpt><trkpt lat="45.628223" lon="9.8800525"><ele>206.0</ele><time>2026-04-04T12:10:51.994Z</time></trkpt><trkpt lat="45.6283835" lon="9.8800516"><ele>206.0</ele><time>2026-04-04T12:10:52.993Z</time></trkpt><trkpt lat="45.6285443" lon="9.8800458"><ele>206.0</ele><time>2026-04-04T12:10:53.993Z</time></trkpt><trkpt lat="45.6287018" lon="9.8800375"><ele>206.0</ele><time>2026-04-04T12:10:54.993Z</time></trkpt><trkpt lat="45.6288544" lon="9.8800287"><ele>206.0</ele><time>2026-04-04T12:10:55.994Z</time></trkpt><trkpt lat="45.6290006" lon="9.8800205"><ele>206.0</ele><time>2026-04-04T12:10:56.994Z</time></trkpt><trkpt lat="45.629139" lon="9.8800181"><ele>206.0</ele><time>2026-04-04T12:10:57.994Z</time></trkpt><trkpt lat="45.6292601" lon="9.8800295"><ele>206.0</ele><time>2026-04-04T12:10:58.993Z</time></trkpt><trkpt lat="45.6293633" lon="9.8800572"><ele>206.0</ele><time>2026-04-04T12:10:59.993Z</time></trkpt><trkpt lat="45.6294586" lon="9.8801229"><ele>206.0</ele><time>2026-04-04T12:11:00.993Z</time></trkpt><trkpt lat="45.6295392" lon="9.8802034"><ele>206.0</ele><time>2026-04-04T12:11:01.993Z</time></trkpt><trkpt lat="45.6296207" lon="9.8802711"><ele>206.0</ele><time>2026-04-04T12:11:02.993Z</time></trkpt><trkpt lat="45.6297103" lon="9.8803046"><ele>206.4</ele><time>2026-04-04T12:11:03.994Z</time></trkpt><trkpt lat="45.6298051" lon="9.8802966"><ele>206.8</ele><time>2026-04-04T12:11:04.993Z</time></trkpt><trkpt lat="45.6298977" lon="9.8802437"><ele>207.20000000000002</ele><time>2026-04-04T12:11:05.994Z</time></trkpt><trkpt lat="45.6299929" lon="9.880161"><ele>207.60000000000002</ele><time>2026-04-04T12:11:06.993Z</time></trkpt><trkpt lat="45.6301006" lon="9.8800748"><ele>208.0</ele><time>2026-04-04T12:11:07.994Z</time></trkpt><trkpt lat="45.6302273" lon="9.880026"><ele>208.0</ele><time>2026-04-04T12:11:08.993Z</time></trkpt><trkpt lat="45.6303649" lon="9.8800056"><ele>208.0</ele><time>2026-04-04T12:11:09.994Z</time></trkpt><trkpt lat="45.6305108" lon="9.8800053"><ele>208.0</ele><time>2026-04-04T12:11:10.994Z</time></trkpt><trkpt lat="45.6306603" lon="9.880009"><ele>208.0</ele><time>2026-04-04T12:11:11.993Z</time></trkpt><trkpt lat="45.6308155" lon="9.8800123"><ele>208.0</ele><time>2026-04-04T12:11:12.994Z</time></trkpt><trkpt lat="45.6309753" lon="9.8800147"><ele>208.0</ele><time>2026-04-04T12:11:13.993Z</time></trkpt><trkpt lat="45.6311345" lon="9.8800135"><ele>208.0</ele><time>2026-04-04T12:11:14.993Z</time></trkpt><trkpt lat="45.6312981" lon="9.8800206"><ele>208.33333333333331</ele><time>2026-04-04T12:11:15.993Z</time></trkpt><trkpt lat="45.6314632" lon="9.880021"><ele>208.66666666666669</ele><time>2026-04-04T12:11:16.994Z</time></trkpt><trkpt lat="45.6316277" lon="9.8800201"><ele>209.0</ele><time>2026-04-04T12:11:17.993Z</time></trkpt><trkpt lat="45.631791" lon="9.8800205"><ele>209.0</ele><time>2026-04-04T12:11:18.994Z</time></trkpt><trkpt lat="45.631955" lon="9.8800187"><ele>209.0</ele><time>2026-04-04T12:11:19.994Z</time></trkpt><trkpt lat="45.6321146" lon="9.8800184"><ele>209.0</ele><time>2026-04-04T12:11:20.993Z</time></trkpt><trkpt lat="45.632277" lon="9.8800165"><ele>208.66666666666669</ele><time>2026-04-04T12:11:21.994Z</time></trkpt><trkpt lat="45.6324463" lon="9.8800092"><ele>208.33333333333331</ele><time>2026-04-04T12:11:22.994Z</time></trkpt><trkpt lat="45.6326123" lon="9.8800006"><ele>208.0</ele><time>2026-04-04T12:11:23.993Z</time></trkpt><trkpt lat="45.6327796" lon="9.8799966"><ele>208.33333333333331</ele><time>2026-04-04T12:11:24.994Z</time></trkpt><trkpt lat="45.6329447" lon="9.8799885"><ele>208.66666666666669</ele><time>2026-04-04T12:11:25.993Z</time></trkpt><trkpt lat="45.6331047" lon="9.8799855"><ele>209.0</ele><time>2026-04-04T12:11:26.993Z</time></trkpt><trkpt lat="45.6332637" lon="9.8799813"><ele>209.0</ele><time>2026-04-04T12:11:27.994Z</time></trkpt><trkpt lat="45.6334178" lon="9.8799782"><ele>209.0</ele><time>2026-04-04T12:11:28.993Z</time></trkpt><trkpt lat="45.6335733" lon="9.8799744"><ele>209.0</ele><time>2026-04-04T12:11:29.994Z</time></trkpt><trkpt lat="45.6337256" lon="9.8799749"><ele>209.0</ele><time>2026-04-04T12:11:30.994Z</time></trkpt><trkpt lat="45.6338784" lon="9.8799681"><ele>209.0</ele><time>2026-04-04T12:11:31.993Z</time></trkpt><trkpt lat="45.634037" lon="9.8799698"><ele>209.0</ele><time>2026-04-04T12:11:32.994Z</time></trkpt><trkpt lat="45.6341973" lon="9.8799558"><ele>209.0</ele><time>2026-04-04T12:11:33.993Z</time></trkpt><trkpt lat="45.6343573" lon="9.8799481"><ele>209.0</ele><time>2026-04-04T12:11:34.994Z</time></trkpt><trkpt lat="45.6345219" lon="9.879936"><ele>209.0</ele><time>2026-04-04T12:11:35.993Z</time></trkpt><trkpt lat="45.6346803" lon="9.8799195"><ele>209.66666666666669</ele><time>2026-04-04T12:11:36.993Z</time></trkpt><trkpt lat="45.6348386" lon="9.8799078"><ele>210.33333333333331</ele><time>2026-04-04T12:11:37.993Z</time></trkpt><trkpt lat="45.6349929" lon="9.8798895"><ele>211.0</ele><time>2026-04-04T12:11:38.994Z</time></trkpt><trkpt lat="45.6351474" lon="9.8798702"><ele>211.0</ele><time>2026-04-04T12:11:39.993Z</time></trkpt><trkpt lat="45.6353014" lon="9.8798518"><ele>211.0</ele><time>2026-04-04T12:11:40.994Z</time></trkpt><trkpt lat="45.6354554" lon="9.879831"><ele>211.0</ele><time>2026-04-04T12:11:41.994Z</time></trkpt><trkpt lat="45.635602" lon="9.8798167"><ele>211.0</ele><time>2026-04-04T12:11:42.994Z</time></trkpt><trkpt lat="45.6357463" lon="9.8798096"><ele>211.0</ele><time>2026-04-04T12:11:43.993Z</time></trkpt><trkpt lat="45.635891" lon="9.8797966"><ele>211.0</ele><time>2026-04-04T12:11:44.994Z</time></trkpt><trkpt lat="45.6360343" lon="9.8797861"><ele>211.0</ele><time>2026-04-04T12:11:45.994Z</time></trkpt><trkpt lat="45.6361763" lon="9.8797748"><ele>211.0</ele><time>2026-04-04T12:11:46.994Z</time></trkpt><trkpt lat="45.6363121" lon="9.879769"><ele>211.0</ele><time>2026-04-04T12:11:47.994Z</time></trkpt><trkpt lat="45.6364337" lon="9.8797624"><ele>211.0</ele><time>2026-04-04T12:11:48.994Z</time></trkpt><trkpt lat="45.6365507" lon="9.879757"><ele>211.0</ele><time>2026-04-04T12:11:49.994Z</time></trkpt><trkpt lat="45.6366511" lon="9.8797466"><ele>210.99999999999997</ele><time>2026-04-04T12:11:50.994Z</time></trkpt><trkpt lat="45.6367322" lon="9.8797487"><ele>211.0</ele><time>2026-04-04T12:11:51.994Z</time></trkpt><trkpt lat="45.636806" lon="9.8797685"><ele>211.0</ele><time>2026-04-04T12:11:52.993Z</time></trkpt><trkpt lat="45.6368742" lon="9.879823"><ele>211.0</ele><time>2026-04-04T12:11:53.993Z</time></trkpt><trkpt lat="45.636927" lon="9.8799062"><ele>210.99999999999997</ele><time>2026-04-04T12:11:54.993Z</time></trkpt><trkpt lat="45.636966" lon="9.8799815"><ele>211.0</ele><time>2026-04-04T12:11:55.994Z</time></trkpt><trkpt lat="45.6370666" lon="9.8800139"><ele>211.49999999999997</ele><time>2026-04-04T12:11:57.993Z</time></trkpt><trkpt lat="45.6371149" lon="9.8799532"><ele>212.0</ele><time>2026-04-04T12:11:58.993Z</time></trkpt><trkpt lat="45.6371826" lon="9.8799165"><ele>212.5</ele><time>2026-04-04T12:11:59.994Z</time></trkpt><trkpt lat="45.6372711" lon="9.8798877"><ele>213.0</ele><time>2026-04-04T12:12:00.994Z</time></trkpt><trkpt lat="45.6373734" lon="9.8798702"><ele>213.49999999999997</ele><time>2026-04-04T12:12:01.993Z</time></trkpt><trkpt lat="45.6374898" lon="9.8798617"><ele>214.0</ele><time>2026-04-04T12:12:02.993Z</time></trkpt><trkpt lat="45.6376173" lon="9.8798593"><ele>214.0</ele><time>2026-04-04T12:12:03.993Z</time></trkpt><trkpt lat="45.6377515" lon="9.8798504"><ele>214.0</ele><time>2026-04-04T12:12:04.993Z</time></trkpt><trkpt lat="45.6378845" lon="9.8798631"><ele>214.0</ele><time>2026-04-04T12:12:05.994Z</time></trkpt><trkpt lat="45.6380245" lon="9.8798728"><ele>214.0</ele><time>2026-04-04T12:12:06.994Z</time></trkpt><trkpt lat="45.6381626" lon="9.8799128"><ele>214.0</ele><time>2026-04-04T12:12:07.994Z</time></trkpt><trkpt lat="45.638298" lon="9.8799559"><ele>214.0</ele><time>2026-04-04T12:12:08.994Z</time></trkpt><trkpt lat="45.6384348" lon="9.8800041"><ele>214.0</ele><time>2026-04-04T12:12:09.993Z</time></trkpt><trkpt lat="45.6385755" lon="9.8800547"><ele>214.0</ele><time>2026-04-04T12:12:10.994Z</time></trkpt><trkpt lat="45.638715" lon="9.8801101"><ele>214.25</ele><time>2026-04-04T12:12:11.994Z</time></trkpt><trkpt lat="45.6388498" lon="9.8801776"><ele>214.5</ele><time>2026-04-04T12:12:12.994Z</time></trkpt><trkpt lat="45.6389866" lon="9.8802475"><ele>214.75</ele><time>2026-04-04T12:12:13.994Z</time></trkpt><trkpt lat="45.6391262" lon="9.8802794"><ele>215.0</ele><time>2026-04-04T12:12:14.994Z</time></trkpt><trkpt lat="45.639272" lon="9.8802872"><ele>215.0</ele><time>2026-04-04T12:12:15.993Z</time></trkpt><trkpt lat="45.6394185" lon="9.8802899"><ele>215.0</ele><time>2026-04-04T12:12:16.993Z</time></trkpt><trkpt lat="45.6395667" lon="9.8802926"><ele>215.0</ele><time>2026-04-04T12:12:17.993Z</time></trkpt><trkpt lat="45.6397121" lon="9.8802945"><ele>215.0</ele><time>2026-04-04T12:12:18.993Z</time></trkpt><trkpt lat="45.6398479" lon="9.880295"><ele>215.25</ele><time>2026-04-04T12:12:19.994Z</time></trkpt><trkpt lat="45.6399808" lon="9.8802821"><ele>215.5</ele><time>2026-04-04T12:12:20.994Z</time></trkpt><trkpt lat="45.6401229" lon="9.8802859"><ele>215.75</ele><time>2026-04-04T12:12:21.993Z</time></trkpt><trkpt lat="45.640262" lon="9.8802944"><ele>216.0</ele><time>2026-04-04T12:12:22.994Z</time></trkpt><trkpt lat="45.6404073" lon="9.8803038"><ele>216.25</ele><time>2026-04-04T12:12:23.993Z</time></trkpt><trkpt lat="45.6405486" lon="9.8803238"><ele>216.5</ele><time>2026-04-04T12:12:24.993Z</time></trkpt><trkpt lat="45.640695" lon="9.8803339"><ele>216.75</ele><time>2026-04-04T12:12:25.993Z</time></trkpt><trkpt lat="45.6408383" lon="9.8803432"><ele>217.0</ele><time>2026-04-04T12:12:26.994Z</time></trkpt><trkpt lat="45.6409722" lon="9.8803642"><ele>217.0</ele><time>2026-04-04T12:12:27.994Z</time></trkpt><trkpt lat="45.6410996" lon="9.8803702"><ele>217.0</ele><time>2026-04-04T12:12:28.993Z</time></trkpt><trkpt lat="45.6412109" lon="9.8803692"><ele>217.0</ele><time>2026-04-04T12:12:29.994Z</time></trkpt><trkpt lat="45.6412967" lon="9.8803696"><ele>217.0</ele><time>2026-04-04T12:12:30.993Z</time></trkpt><trkpt lat="45.6413599" lon="9.8803665"><ele>217.0</ele><time>2026-04-04T12:12:31.994Z</time></trkpt><trkpt lat="45.6414262" lon="9.880362"><ele>217.2</ele><time>2026-04-04T12:12:33.994Z</time></trkpt><trkpt lat="45.6414743" lon="9.8802936"><ele>217.39999999999998</ele><time>2026-04-04T12:12:35.994Z</time></trkpt><trkpt lat="45.6414933" lon="9.8800835"><ele>217.60000000000002</ele><time>2026-04-04T12:12:37.993Z</time></trkpt><trkpt lat="45.6414944" lon="9.8799308"><ele>217.8</ele><time>2026-04-04T12:12:38.994Z</time></trkpt><trkpt lat="45.6414988" lon="9.8797609"><ele>218.0</ele><time>2026-04-04T12:12:39.994Z</time></trkpt><trkpt lat="45.6415036" lon="9.8795698"><ele>218.0</ele><time>2026-04-04T12:12:40.993Z</time></trkpt><trkpt lat="45.6415047" lon="9.8793757"><ele>218.0</ele><time>2026-04-04T12:12:41.993Z</time></trkpt><trkpt lat="45.6415075" lon="9.8791826"><ele>218.0</ele><time>2026-04-04T12:12:42.993Z</time></trkpt><trkpt lat="45.6415151" lon="9.8789791"><ele>218.0</ele><time>2026-04-04T12:12:43.993Z</time></trkpt><trkpt lat="45.6415249" lon="9.8787923"><ele>218.0</ele><time>2026-04-04T12:12:44.993Z</time></trkpt><trkpt lat="45.6415305" lon="9.8786168"><ele>218.0</ele><time>2026-04-04T12:12:45.993Z</time></trkpt><trkpt lat="45.6415352" lon="9.8784534"><ele>218.0</ele><time>2026-04-04T12:12:46.993Z</time></trkpt><trkpt lat="45.6415416" lon="9.8783174"><ele>218.0</ele><time>2026-04-04T12:12:47.994Z</time></trkpt><trkpt lat="45.6415472" lon="9.8781805"><ele>218.0</ele><time>2026-04-04T12:12:48.994Z</time></trkpt><trkpt lat="45.6415475" lon="9.8780252"><ele>217.5</ele><time>2026-04-04T12:12:49.994Z</time></trkpt><trkpt lat="45.6415491" lon="9.8778645"><ele>217.0</ele><time>2026-04-04T12:12:50.994Z</time></trkpt><trkpt lat="45.6415517" lon="9.8776882"><ele>216.5</ele><time>2026-04-04T12:12:51.993Z</time></trkpt><trkpt lat="45.641555" lon="9.8775056"><ele>216.0</ele><time>2026-04-04T12:12:52.994Z</time></trkpt><trkpt lat="45.6415599" lon="9.8773175"><ele>216.0</ele><time>2026-04-04T12:12:53.993Z</time></trkpt><trkpt lat="45.6415646" lon="9.8771239"><ele>216.0</ele><time>2026-04-04T12:12:54.994Z</time></trkpt><trkpt lat="45.6415645" lon="9.876935"><ele>216.0</ele><time>2026-04-04T12:12:55.994Z</time></trkpt><trkpt lat="45.6415706" lon="9.8767436"><ele>216.0</ele><time>2026-04-04T12:12:56.993Z</time></trkpt><trkpt lat="45.6415789" lon="9.8765569"><ele>216.0</ele><time>2026-04-04T12:12:57.994Z</time></trkpt><trkpt lat="45.6415776" lon="9.8763767"><ele>216.0</ele><time>2026-04-04T12:12:58.994Z</time></trkpt><trkpt lat="45.6415888" lon="9.8762001"><ele>216.0</ele><time>2026-04-04T12:12:59.994Z</time></trkpt><trkpt lat="45.6416103" lon="9.8760364"><ele>216.0</ele><time>2026-04-04T12:13:00.993Z</time></trkpt><trkpt lat="45.6416428" lon="9.87588"><ele>216.25</ele><time>2026-04-04T12:13:01.994Z</time></trkpt><trkpt lat="45.6416572" lon="9.8757403"><ele>216.5</ele><time>2026-04-04T12:13:02.994Z</time></trkpt><trkpt lat="45.6416462" lon="9.8755929"><ele>216.75</ele><time>2026-04-04T12:13:03.994Z</time></trkpt><trkpt lat="45.6416145" lon="9.8754337"><ele>217.0</ele><time>2026-04-04T12:13:04.993Z</time></trkpt><trkpt lat="45.6415966" lon="9.8752395"><ele>216.75</ele><time>2026-04-04T12:13:05.993Z</time></trkpt><trkpt lat="45.6415815" lon="9.8750518"><ele>216.5</ele><time>2026-04-04T12:13:06.993Z</time></trkpt><trkpt lat="45.6415654" lon="9.8748428"><ele>216.25</ele><time>2026-04-04T12:13:07.994Z</time></trkpt><trkpt lat="45.6415534" lon="9.8746271"><ele>216.0</ele><time>2026-04-04T12:13:08.993Z</time></trkpt><trkpt lat="45.6415443" lon="9.874407"><ele>216.0</ele><time>2026-04-04T12:13:09.993Z</time></trkpt><trkpt lat="45.6415301" lon="9.8741791"><ele>216.0</ele><time>2026-04-04T12:13:10.994Z</time></trkpt><trkpt lat="45.6415093" lon="9.8739459"><ele>216.0</ele><time>2026-04-04T12:13:11.994Z</time></trkpt><trkpt lat="45.6414943" lon="9.8737249"><ele>216.0</ele><time>2026-04-04T12:13:12.993Z</time></trkpt><trkpt lat="45.6414827" lon="9.8735159"><ele>216.0</ele><time>2026-04-04T12:13:13.993Z</time></trkpt><trkpt lat="45.6414728" lon="9.8733132"><ele>216.0</ele><time>2026-04-04T12:13:14.993Z</time></trkpt><trkpt lat="45.6414607" lon="9.873118"><ele>216.0</ele><time>2026-04-04T12:13:15.993Z</time></trkpt><trkpt lat="45.641447" lon="9.8729391"><ele>216.0</ele><time>2026-04-04T12:13:16.994Z</time></trkpt><trkpt lat="45.6414379" lon="9.8727734"><ele>216.0</ele><time>2026-04-04T12:13:17.994Z</time></trkpt><trkpt lat="45.6414369" lon="9.8726047"><ele>216.0</ele><time>2026-04-04T12:13:18.994Z</time></trkpt><trkpt lat="45.6414331" lon="9.8724327"><ele>216.0</ele><time>2026-04-04T12:13:19.994Z</time></trkpt><trkpt lat="45.6414123" lon="9.8722524"><ele>216.0</ele><time>2026-04-04T12:13:20.994Z</time></trkpt><trkpt lat="45.6413955" lon="9.8720625"><ele>216.0</ele><time>2026-04-04T12:13:21.994Z</time></trkpt><trkpt lat="45.6413841" lon="9.871871"><ele>216.0</ele><time>2026-04-04T12:13:22.994Z</time></trkpt><trkpt lat="45.6413706" lon="9.8716746"><ele>216.0</ele><time>2026-04-04T12:13:23.994Z</time></trkpt><trkpt lat="45.6413629" lon="9.8714777"><ele>217.0</ele><time>2026-04-04T12:13:24.994Z</time></trkpt><trkpt lat="45.6413541" lon="9.8712816"><ele>218.0</ele><time>2026-04-04T12:13:25.993Z</time></trkpt><trkpt lat="45.6413433" lon="9.8710778"><ele>219.0</ele><time>2026-04-04T12:13:26.993Z</time></trkpt><trkpt lat="45.6413373" lon="9.8708789"><ele>220.0</ele><time>2026-04-04T12:13:27.993Z</time></trkpt><trkpt lat="45.6413266" lon="9.8706738"><ele>220.5</ele><time>2026-04-04T12:13:28.993Z</time></trkpt><trkpt lat="45.6413116" lon="9.8704678"><ele>221.0</ele><time>2026-04-04T12:13:29.993Z</time></trkpt><trkpt lat="45.6412975" lon="9.8702576"><ele>221.5</ele><time>2026-04-04T12:13:30.993Z</time></trkpt><trkpt lat="45.6412816" lon="9.8700573"><ele>222.0</ele><time>2026-04-04T12:13:31.993Z</time></trkpt><trkpt lat="45.6412703" lon="9.8698675"><ele>223.0</ele><time>2026-04-04T12:13:32.994Z</time></trkpt><trkpt lat="45.64127" lon="9.8696828"><ele>224.0</ele><time>2026-04-04T12:13:33.993Z</time></trkpt><trkpt lat="45.6412589" lon="9.8695054"><ele>225.0</ele><time>2026-04-04T12:13:34.993Z</time></trkpt><trkpt lat="45.6412536" lon="9.8693469"><ele>226.0</ele><time>2026-04-04T12:13:35.994Z</time></trkpt><trkpt lat="45.6412538" lon="9.8692057"><ele>228.0</ele><time>2026-04-04T12:13:36.993Z</time></trkpt><trkpt lat="45.6412679" lon="9.869067"><ele>230.00000000000003</ele><time>2026-04-04T12:13:37.993Z</time></trkpt><trkpt lat="45.6413076" lon="9.8689577"><ele>232.00000000000003</ele><time>2026-04-04T12:13:38.994Z</time></trkpt><trkpt lat="45.6413763" lon="9.868886"><ele>234.0</ele><time>2026-04-04T12:13:39.994Z</time></trkpt><trkpt lat="45.6414694" lon="9.8688314"><ele>236.0</ele><time>2026-04-04T12:13:40.993Z</time></trkpt><trkpt lat="45.6415785" lon="9.8687907"><ele>236.0</ele><time>2026-04-04T12:13:41.993Z</time></trkpt><trkpt lat="45.6416929" lon="9.868762"><ele>236.0</ele><time>2026-04-04T12:13:42.994Z</time></trkpt><trkpt lat="45.6418182" lon="9.8687447"><ele>236.0</ele><time>2026-04-04T12:13:43.993Z</time></trkpt><trkpt lat="45.6419486" lon="9.8687264"><ele>236.0</ele><time>2026-04-04T12:13:44.994Z</time></trkpt><trkpt lat="45.6420796" lon="9.8687048"><ele>237.25</ele><time>2026-04-04T12:13:45.994Z</time></trkpt><trkpt lat="45.6422109" lon="9.8686709"><ele>238.5</ele><time>2026-04-04T12:13:46.993Z</time></trkpt><trkpt lat="45.6423441" lon="9.8686062"><ele>239.75</ele><time>2026-04-04T12:13:47.994Z</time></trkpt><trkpt lat="45.6424729" lon="9.8685172"><ele>241.0</ele><time>2026-04-04T12:13:48.993Z</time></trkpt><trkpt lat="45.6426038" lon="9.8684185"><ele>245.25</ele><time>2026-04-04T12:13:49.993Z</time></trkpt><trkpt lat="45.6427284" lon="9.8683121"><ele>249.5</ele><time>2026-04-04T12:13:50.994Z</time></trkpt><trkpt lat="45.6428488" lon="9.8682145"><ele>253.75</ele><time>2026-04-04T12:13:51.993Z</time></trkpt><trkpt lat="45.6429591" lon="9.8681033"><ele>258.0</ele><time>2026-04-04T12:13:52.993Z</time></trkpt><trkpt lat="45.6430612" lon="9.8679613"><ele>258.5</ele><time>2026-04-04T12:13:53.994Z</time></trkpt><trkpt lat="45.6431452" lon="9.867805"><ele>259.0</ele><time>2026-04-04T12:13:54.993Z</time></trkpt><trkpt lat="45.643222" lon="9.8676573"><ele>259.5</ele><time>2026-04-04T12:13:55.994Z</time></trkpt><trkpt lat="45.6433115" lon="9.8675156"><ele>260.0</ele><time>2026-04-04T12:13:56.993Z</time></trkpt><trkpt lat="45.6434174" lon="9.8674159"><ele>262.0</ele><time>2026-04-04T12:13:57.994Z</time></trkpt><trkpt lat="45.6435384" lon="9.8673474"><ele>264.0</ele><time>2026-04-04T12:13:58.993Z</time></trkpt><trkpt lat="45.6436671" lon="9.867307"><ele>266.0</ele><time>2026-04-04T12:13:59.993Z</time></trkpt><trkpt lat="45.6437978" lon="9.8672893"><ele>268.0</ele><time>2026-04-04T12:14:00.994Z</time></trkpt><trkpt lat="45.6439274" lon="9.8672903"><ele>271.0</ele><time>2026-04-04T12:14:01.993Z</time></trkpt><trkpt lat="45.6440492" lon="9.8673178"><ele>274.0</ele><time>2026-04-04T12:14:02.994Z</time></trkpt><trkpt lat="45.6441669" lon="9.8673634"><ele>277.0</ele><time>2026-04-04T12:14:03.994Z</time></trkpt><trkpt lat="45.644281" lon="9.8674661"><ele>280.0</ele><time>2026-04-04T12:14:04.994Z</time></trkpt><trkpt lat="45.6443936" lon="9.867545"><ele>280.0</ele><time>2026-04-04T12:14:05.994Z</time></trkpt><trkpt lat="45.6445199" lon="9.867618"><ele>280.0</ele><time>2026-04-04T12:14:06.993Z</time></trkpt><trkpt lat="45.6446457" lon="9.867681"><ele>280.0</ele><time>2026-04-04T12:14:07.994Z</time></trkpt><trkpt lat="45.6447797" lon="9.8677469"><ele>280.0</ele><time>2026-04-04T12:14:08.994Z</time></trkpt><trkpt lat="45.6449135" lon="9.8678059"><ele>280.0</ele><time>2026-04-04T12:14:09.994Z</time></trkpt><trkpt lat="45.6450438" lon="9.867868"><ele>280.0</ele><time>2026-04-04T12:14:10.994Z</time></trkpt><trkpt lat="45.6451746" lon="9.8679321"><ele>280.0</ele><time>2026-04-04T12:14:11.994Z</time></trkpt><trkpt lat="45.6453026" lon="9.8680066"><ele>280.0</ele><time>2026-04-04T12:14:12.993Z</time></trkpt><trkpt lat="45.6454232" lon="9.8680801"><ele>282.5</ele><time>2026-04-04T12:14:13.993Z</time></trkpt><trkpt lat="45.6455294" lon="9.8681612"><ele>285.0</ele><time>2026-04-04T12:14:14.994Z</time></trkpt><trkpt lat="45.6456187" lon="9.8682715"><ele>287.5</ele><time>2026-04-04T12:14:15.993Z</time></trkpt><trkpt lat="45.6456968" lon="9.868405"><ele>290.0</ele><time>2026-04-04T12:14:16.993Z</time></trkpt><trkpt lat="45.6457747" lon="9.8685476"><ele>290.0</ele><time>2026-04-04T12:14:17.994Z</time></trkpt><trkpt lat="45.6458498" lon="9.8686889"><ele>290.0</ele><time>2026-04-04T12:14:18.994Z</time></trkpt><trkpt lat="45.6459293" lon="9.8688105"><ele>290.0</ele><time>2026-04-04T12:14:19.994Z</time></trkpt><trkpt lat="45.646018" lon="9.8689048"><ele>290.0</ele><time>2026-04-04T12:14:20.993Z</time></trkpt><trkpt lat="45.6461503" lon="9.8689269"><ele>292.6</ele><time>2026-04-04T12:14:21.994Z</time></trkpt><trkpt lat="45.6462622" lon="9.8689433"><ele>295.2</ele><time>2026-04-04T12:14:22.994Z</time></trkpt><trkpt lat="45.6463607" lon="9.8689594"><ele>297.8</ele><time>2026-04-04T12:14:23.993Z</time></trkpt><trkpt lat="45.6464539" lon="9.8689735"><ele>300.4</ele><time>2026-04-04T12:14:24.994Z</time></trkpt><trkpt lat="45.6465349" lon="9.8689658"><ele>303.0</ele><time>2026-04-04T12:14:25.993Z</time></trkpt><trkpt lat="45.6465953" lon="9.8689089"><ele>303.0</ele><time>2026-04-04T12:14:26.993Z</time></trkpt><trkpt lat="45.646625" lon="9.8688269"><ele>303.0</ele><time>2026-04-04T12:14:27.994Z</time></trkpt><trkpt lat="45.6466076" lon="9.8687249"><ele>303.0</ele><time>2026-04-04T12:14:28.994Z</time></trkpt><trkpt lat="45.6465487" lon="9.8686417"><ele>303.0</ele><time>2026-04-04T12:14:29.993Z</time></trkpt><trkpt lat="45.6464792" lon="9.8685687"><ele>303.0</ele><time>2026-04-04T12:14:30.994Z</time></trkpt><trkpt lat="45.6464164" lon="9.8685073"><ele>303.0</ele><time>2026-04-04T12:14:31.994Z</time></trkpt><trkpt lat="45.6463985" lon="9.8683496"><ele>305.2</ele><time>2026-04-04T12:14:33.993Z</time></trkpt><trkpt lat="45.6465049" lon="9.8682152"><ele>307.4</ele><time>2026-04-04T12:14:35.994Z</time></trkpt><trkpt lat="45.6465785" lon="9.8681456"><ele>309.59999999999997</ele><time>2026-04-04T12:14:36.994Z</time></trkpt><trkpt lat="45.646657" lon="9.8680671"><ele>311.8</ele><time>2026-04-04T12:14:37.994Z</time></trkpt><trkpt lat="45.6467385" lon="9.8679983"><ele>314.0</ele><time>2026-04-04T12:14:38.993Z</time></trkpt><trkpt lat="45.6468281" lon="9.8679719"><ele>314.0</ele><time>2026-04-04T12:14:39.994Z</time></trkpt><trkpt lat="45.6469169" lon="9.8680015"><ele>314.0</ele><time>2026-04-04T12:14:40.993Z</time></trkpt><trkpt lat="45.6470098" lon="9.8680519"><ele>314.0</ele><time>2026-04-04T12:14:41.994Z</time></trkpt><trkpt lat="45.6471065" lon="9.8681757"><ele>314.0</ele><time>2026-04-04T12:14:42.994Z</time></trkpt><trkpt lat="45.6472168" lon="9.8682709"><ele>314.0</ele><time>2026-04-04T12:14:43.994Z</time></trkpt><trkpt lat="45.6473126" lon="9.8683868"><ele>314.5</ele><time>2026-04-04T12:14:44.993Z</time></trkpt><trkpt lat="45.6474081" lon="9.8685369"><ele>315.0</ele><time>2026-04-04T12:14:45.994Z</time></trkpt><trkpt lat="45.6474911" lon="9.8686888"><ele>315.5</ele><time>2026-04-04T12:14:46.994Z</time></trkpt><trkpt lat="45.6475848" lon="9.8688274"><ele>316.0</ele><time>2026-04-04T12:14:47.993Z</time></trkpt><trkpt lat="45.6476711" lon="9.8689677"><ele>316.0</ele><time>2026-04-04T12:14:48.993Z</time></trkpt><trkpt lat="45.6477581" lon="9.8691049"><ele>316.0</ele><time>2026-04-04T12:14:49.994Z</time></trkpt><trkpt lat="45.6478387" lon="9.8692402"><ele>316.0</ele><time>2026-04-04T12:14:50.994Z</time></trkpt><trkpt lat="45.6479148" lon="9.8693724"><ele>316.0</ele><time>2026-04-04T12:14:51.994Z</time></trkpt><trkpt lat="45.6479893" lon="9.8694933"><ele>317.20000000000005</ele><time>2026-04-04T12:14:52.994Z</time></trkpt><trkpt lat="45.6480537" lon="9.8696023"><ele>318.40000000000003</ele><time>2026-04-04T12:14:53.994Z</time></trkpt><trkpt lat="45.6481156" lon="9.8697069"><ele>319.6</ele><time>2026-04-04T12:14:54.994Z</time></trkpt><trkpt lat="45.6481606" lon="9.869822"><ele>320.8</ele><time>2026-04-04T12:14:55.994Z</time></trkpt><trkpt lat="45.6482097" lon="9.8699325"><ele>322.0</ele><time>2026-04-04T12:14:56.993Z</time></trkpt><trkpt lat="45.6482556" lon="9.8700483"><ele>320.66666666666663</ele><time>2026-04-04T12:14:57.994Z</time></trkpt><trkpt lat="45.6483015" lon="9.8701563"><ele>319.3333333333333</ele><time>2026-04-04T12:14:58.993Z</time></trkpt><trkpt lat="45.6483505" lon="9.8702664"><ele>318.0</ele><time>2026-04-04T12:14:59.994Z</time></trkpt><trkpt lat="45.6484028" lon="9.8703713"><ele>316.6666666666667</ele><time>2026-04-04T12:15:00.994Z</time></trkpt><trkpt lat="45.6484622" lon="9.8704546"><ele>315.33333333333337</ele><time>2026-04-04T12:15:01.993Z</time></trkpt><trkpt lat="45.6485237" lon="9.8705211"><ele>314.0</ele><time>2026-04-04T12:15:02.994Z</time></trkpt><trkpt lat="45.6485913" lon="9.8705654"><ele>314.1428571428571</ele><time>2026-04-04T12:15:03.993Z</time></trkpt><trkpt lat="45.6486489" lon="9.8706251"><ele>314.2857142857143</ele><time>2026-04-04T12:15:04.994Z</time></trkpt><trkpt lat="45.6487025" lon="9.870683"><ele>314.42857142857144</ele><time>2026-04-04T12:15:05.993Z</time></trkpt><trkpt lat="45.6487634" lon="9.8707391"><ele>314.57142857142856</ele><time>2026-04-04T12:15:06.993Z</time></trkpt><trkpt lat="45.6488197" lon="9.8708003"><ele>314.7142857142857</ele><time>2026-04-04T12:15:07.994Z</time></trkpt><trkpt lat="45.6488899" lon="9.8708603"><ele>314.85714285714283</ele><time>2026-04-04T12:15:08.993Z</time></trkpt><trkpt lat="45.6489552" lon="9.8709201"><ele>315.0</ele><time>2026-04-04T12:15:09.994Z</time></trkpt><trkpt lat="45.6490067" lon="9.8709812"><ele>314.5</ele><time>2026-04-04T12:15:10.994Z</time></trkpt><trkpt lat="45.649069" lon="9.8710302"><ele>314.0</ele><time>2026-04-04T12:15:11.994Z</time></trkpt><trkpt lat="45.6491228" lon="9.8710791"><ele>313.5</ele><time>2026-04-04T12:15:12.994Z</time></trkpt><trkpt lat="45.6491789" lon="9.8711231"><ele>313.0</ele><time>2026-04-04T12:15:13.994Z</time></trkpt><trkpt lat="45.6492845" lon="9.8712038"><ele>312.5</ele><time>2026-04-04T12:15:15.993Z</time></trkpt><trkpt lat="45.649384" lon="9.8712766"><ele>312.0</ele><time>2026-04-04T12:15:17.993Z</time></trkpt><trkpt lat="45.6494491" lon="9.8713365"><ele>311.8</ele><time>2026-04-04T12:15:19.993Z</time></trkpt><trkpt lat="45.6495229" lon="9.8713908"><ele>311.6</ele><time>2026-04-04T12:15:21.993Z</time></trkpt><trkpt lat="45.6495953" lon="9.8714307"><ele>311.40000000000003</ele><time>2026-04-04T12:15:22.993Z</time></trkpt><trkpt lat="45.6496843" lon="9.8715172"><ele>311.2</ele><time>2026-04-04T12:15:23.993Z</time></trkpt><trkpt lat="45.649744" lon="9.8716257"><ele>311.0</ele><time>2026-04-04T12:15:24.993Z</time></trkpt><trkpt lat="45.6498043" lon="9.8717365"><ele>311.2</ele><time>2026-04-04T12:15:25.994Z</time></trkpt><trkpt lat="45.6498761" lon="9.8718482"><ele>311.40000000000003</ele><time>2026-04-04T12:15:26.994Z</time></trkpt><trkpt lat="45.6499486" lon="9.8719543"><ele>311.6</ele><time>2026-04-04T12:15:27.993Z</time></trkpt><trkpt lat="45.6500213" lon="9.8720516"><ele>311.8</ele><time>2026-04-04T12:15:28.993Z</time></trkpt><trkpt lat="45.6500894" lon="9.8721422"><ele>312.0</ele><time>2026-04-04T12:15:29.994Z</time></trkpt><trkpt lat="45.650154" lon="9.8722319"><ele>312.0</ele><time>2026-04-04T12:15:30.993Z</time></trkpt><trkpt lat="45.6502159" lon="9.8723141"><ele>312.0</ele><time>2026-04-04T12:15:31.994Z</time></trkpt><trkpt lat="45.6502816" lon="9.8723963"><ele>312.0</ele><time>2026-04-04T12:15:32.994Z</time></trkpt><trkpt lat="45.6503361" lon="9.8724793"><ele>312.0</ele><time>2026-04-04T12:15:33.994Z</time></trkpt><trkpt lat="45.6503905" lon="9.8725546"><ele>312.0</ele><time>2026-04-04T12:15:34.994Z</time></trkpt><trkpt lat="45.6504464" lon="9.8726319"><ele>312.0</ele><time>2026-04-04T12:15:35.993Z</time></trkpt><trkpt lat="45.6505117" lon="9.8727233"><ele>314.0</ele><time>2026-04-04T12:15:36.993Z</time></trkpt><trkpt lat="45.6505837" lon="9.8728262"><ele>316.0</ele><time>2026-04-04T12:15:37.994Z</time></trkpt><trkpt lat="45.6506524" lon="9.872932"><ele>318.0</ele><time>2026-04-04T12:15:38.993Z</time></trkpt><trkpt lat="45.6507159" lon="9.8730252"><ele>320.0</ele><time>2026-04-04T12:15:39.994Z</time></trkpt><trkpt lat="45.6507787" lon="9.8731298"><ele>322.0</ele><time>2026-04-04T12:15:40.993Z</time></trkpt><trkpt lat="45.6508507" lon="9.8732412"><ele>322.0</ele><time>2026-04-04T12:15:41.994Z</time></trkpt><trkpt lat="45.6509183" lon="9.8733636"><ele>322.0</ele><time>2026-04-04T12:15:42.993Z</time></trkpt><trkpt lat="45.6509759" lon="9.8734913"><ele>322.0</ele><time>2026-04-04T12:15:43.994Z</time></trkpt><trkpt lat="45.6510216" lon="9.8736308"><ele>322.0</ele><time>2026-04-04T12:15:44.994Z</time></trkpt><trkpt lat="45.6510597" lon="9.8737781"><ele>322.0</ele><time>2026-04-04T12:15:45.994Z</time></trkpt><trkpt lat="45.6510892" lon="9.8739307"><ele>322.5</ele><time>2026-04-04T12:15:46.993Z</time></trkpt><trkpt lat="45.6511131" lon="9.8740912"><ele>323.0</ele><time>2026-04-04T12:15:47.993Z</time></trkpt><trkpt lat="45.6511171" lon="9.8742723"><ele>323.5</ele><time>2026-04-04T12:15:48.993Z</time></trkpt><trkpt lat="45.6511311" lon="9.8744529"><ele>324.0</ele><time>2026-04-04T12:15:49.993Z</time></trkpt><trkpt lat="45.6511549" lon="9.8746423"><ele>330.5</ele><time>2026-04-04T12:15:50.994Z</time></trkpt><trkpt lat="45.651199" lon="9.8748143"><ele>337.0</ele><time>2026-04-04T12:15:51.993Z</time></trkpt><trkpt lat="45.6512567" lon="9.8749794"><ele>343.5</ele><time>2026-04-04T12:15:52.993Z</time></trkpt><trkpt lat="45.6513207" lon="9.8751383"><ele>350.0</ele><time>2026-04-04T12:15:53.993Z</time></trkpt><trkpt lat="45.6513932" lon="9.8752872"><ele>350.5</ele><time>2026-04-04T12:15:54.994Z</time></trkpt><trkpt lat="45.6514599" lon="9.875441"><ele>351.0</ele><time>2026-04-04T12:15:55.993Z</time></trkpt><trkpt lat="45.651511" lon="9.8756067"><ele>351.5</ele><time>2026-04-04T12:15:56.994Z</time></trkpt><trkpt lat="45.6515393" lon="9.875777"><ele>352.0</ele><time>2026-04-04T12:15:57.993Z</time></trkpt><trkpt lat="45.6515358" lon="9.8759558"><ele>353.5</ele><time>2026-04-04T12:15:58.994Z</time></trkpt><trkpt lat="45.6515248" lon="9.8761295"><ele>355.0</ele><time>2026-04-04T12:15:59.994Z</time></trkpt><trkpt lat="45.6514993" lon="9.8763056"><ele>356.5</ele><time>2026-04-04T12:16:00.993Z</time></trkpt><trkpt lat="45.651475" lon="9.876482"><ele>358.0</ele><time>2026-04-04T12:16:01.993Z</time></trkpt><trkpt lat="45.6514505" lon="9.8766585"><ele>358.25</ele><time>2026-04-04T12:16:02.993Z</time></trkpt><trkpt lat="45.6514325" lon="9.8768308"><ele>358.5</ele><time>2026-04-04T12:16:03.994Z</time></trkpt><trkpt lat="45.6514041" lon="9.8770074"><ele>358.75</ele><time>2026-04-04T12:16:04.994Z</time></trkpt><trkpt lat="45.6513838" lon="9.8771689"><ele>359.0</ele><time>2026-04-04T12:16:05.994Z</time></trkpt><trkpt lat="45.6513649" lon="9.8773251"><ele>359.0</ele><time>2026-04-04T12:16:06.994Z</time></trkpt><trkpt lat="45.6513526" lon="9.8774786"><ele>359.0</ele><time>2026-04-04T12:16:07.993Z</time></trkpt><trkpt lat="45.6513537" lon="9.8776321"><ele>359.0</ele><time>2026-04-04T12:16:08.993Z</time></trkpt><trkpt lat="45.6513915" lon="9.8777843"><ele>359.0</ele><time>2026-04-04T12:16:09.993Z</time></trkpt><trkpt lat="45.6514455" lon="9.8779243"><ele>359.0</ele><time>2026-04-04T12:16:10.993Z</time></trkpt><trkpt lat="45.651501" lon="9.8780647"><ele>357.75</ele><time>2026-04-04T12:16:11.993Z</time></trkpt><trkpt lat="45.6515583" lon="9.8782094"><ele>356.5</ele><time>2026-04-04T12:16:12.993Z</time></trkpt><trkpt lat="45.6516191" lon="9.8783536"><ele>355.25</ele><time>2026-04-04T12:16:13.993Z</time></trkpt><trkpt lat="45.6516773" lon="9.8785035"><ele>354.0</ele><time>2026-04-04T12:16:14.993Z</time></trkpt><trkpt lat="45.6517367" lon="9.8786581"><ele>352.75</ele><time>2026-04-04T12:16:15.994Z</time></trkpt><trkpt lat="45.6517963" lon="9.8788131"><ele>351.5</ele><time>2026-04-04T12:16:16.994Z</time></trkpt><trkpt lat="45.6518586" lon="9.8789612"><ele>350.25</ele><time>2026-04-04T12:16:17.993Z</time></trkpt><trkpt lat="45.6519245" lon="9.8791177"><ele>349.0</ele><time>2026-04-04T12:16:18.993Z</time></trkpt><trkpt lat="45.6519879" lon="9.8792884"><ele>355.25</ele><time>2026-04-04T12:16:19.993Z</time></trkpt><trkpt lat="45.6520516" lon="9.8794673"><ele>361.5</ele><time>2026-04-04T12:16:20.994Z</time></trkpt><trkpt lat="45.652093" lon="9.8796575"><ele>367.75</ele><time>2026-04-04T12:16:21.994Z</time></trkpt><trkpt lat="45.6521044" lon="9.8798536"><ele>374.0</ele><time>2026-04-04T12:16:22.993Z</time></trkpt><trkpt lat="45.6520859" lon="9.8800553"><ele>374.75</ele><time>2026-04-04T12:16:23.994Z</time></trkpt><trkpt lat="45.6520673" lon="9.880256"><ele>375.5</ele><time>2026-04-04T12:16:24.993Z</time></trkpt><trkpt lat="45.6520579" lon="9.880464"><ele>376.25</ele><time>2026-04-04T12:16:25.994Z</time></trkpt><trkpt lat="45.6520683" lon="9.8806703"><ele>377.0</ele><time>2026-04-04T12:16:26.993Z</time></trkpt><trkpt lat="45.6520986" lon="9.8808695"><ele>377.25</ele><time>2026-04-04T12:16:27.994Z</time></trkpt><trkpt lat="45.652139" lon="9.881067"><ele>377.5</ele><time>2026-04-04T12:16:28.994Z</time></trkpt><trkpt lat="45.6521827" lon="9.8812439"><ele>377.75</ele><time>2026-04-04T12:16:29.994Z</time></trkpt><trkpt lat="45.652252" lon="9.8813999"><ele>378.0</ele><time>2026-04-04T12:16:30.994Z</time></trkpt><trkpt lat="45.6523391" lon="9.8815301"><ele>378.0</ele><time>2026-04-04T12:16:31.994Z</time></trkpt><trkpt lat="45.6524123" lon="9.8816517"><ele>378.0</ele><time>2026-04-04T12:16:32.994Z</time></trkpt><trkpt lat="45.6524579" lon="9.8817886"><ele>378.0</ele><time>2026-04-04T12:16:33.994Z</time></trkpt><trkpt lat="45.6524689" lon="9.8819284"><ele>378.0</ele><time>2026-04-04T12:16:34.993Z</time></trkpt><trkpt lat="45.6524323" lon="9.88206"><ele>378.0</ele><time>2026-04-04T12:16:35.994Z</time></trkpt><trkpt lat="45.6523726" lon="9.882189"><ele>380.0</ele><time>2026-04-04T12:16:36.993Z</time></trkpt><trkpt lat="45.6523165" lon="9.8823322"><ele>382.0</ele><time>2026-04-04T12:16:37.994Z</time></trkpt><trkpt lat="45.6522929" lon="9.882505"><ele>384.0</ele><time>2026-04-04T12:16:38.994Z</time></trkpt><trkpt lat="45.6522917" lon="9.8826791"><ele>386.0</ele><time>2026-04-04T12:16:39.993Z</time></trkpt><trkpt lat="45.6523025" lon="9.8828495"><ele>387.5</ele><time>2026-04-04T12:16:40.993Z</time></trkpt><trkpt lat="45.6523141" lon="9.8830174"><ele>389.0</ele><time>2026-04-04T12:16:41.993Z</time></trkpt><trkpt lat="45.6523275" lon="9.883183"><ele>390.5</ele><time>2026-04-04T12:16:42.994Z</time></trkpt><trkpt lat="45.6523379" lon="9.8833468"><ele>392.0</ele><time>2026-04-04T12:16:43.994Z</time></trkpt><trkpt lat="45.6523392" lon="9.8835142"><ele>393.5</ele><time>2026-04-04T12:16:44.993Z</time></trkpt><trkpt lat="45.6523312" lon="9.8836865"><ele>395.0</ele><time>2026-04-04T12:16:45.993Z</time></trkpt><trkpt lat="45.6523116" lon="9.8838648"><ele>396.5</ele><time>2026-04-04T12:16:46.994Z</time></trkpt><trkpt lat="45.6522875" lon="9.8840403"><ele>398.0</ele><time>2026-04-04T12:16:47.994Z</time></trkpt><trkpt lat="45.6522619" lon="9.8842122"><ele>398.0</ele><time>2026-04-04T12:16:48.994Z</time></trkpt><trkpt lat="45.6522405" lon="9.8843832"><ele>409.0</ele><time>2026-04-04T12:16:49.993Z</time></trkpt></trkseg></trk></gpx>